sensor_id;sensor_type;location;lat;lon;timestamp;pressure;altitude;pressure_sealevel;temperature;humidity
9419;BME280;4748;50.802;7.132;2022-09-09T03:31:00;100289.78;;;17.74;100.00
9419;BME280;4748;50.802;7.132;2022-09-09T03:33:25;100297.09;;;17.74;100.00
9419;BME280;4748;50.802;7.132;2022-09-09T03:35:52;100305.47;;;17.77;100.00
9419;BME280;4748;50.802;7.132;2022-09-09T03:38:18;100304.66;;;17.77;100.00
9419;BME280;4748;50.802;7.132;2022-09-09T03:40:53;100303.31;;;17.74;100.00
9419;BME280;4748;50.802;7.132;2022-09-09T03:43:26;100303.88;;;17.76;100.00
9419;BME280;4748;50.802;7.132;2022-09-09T03:45:51;100303.59;;;17.73;100.00
9419;BME280;4748;50.802;7.132;2022-09-09T03:48:18;100302.47;;;17.79;100.00
9419;BME280;4748;50.802;7.132;2022-09-09T03:50:48;100299.78;;;17.79;100.00
9419;BME280;4748;50.802;7.132;2022-09-09T03:53:15;100291.94;;;17.82;100.00
9419;BME280;4748;50.802;7.132;2022-09-09T03:55:45;100293.81;;;17.82;100.00
9419;BME280;4748;50.802;7.132;2022-09-09T03:58:12;100295.97;;;17.85;100.00
9419;BME280;4748;50.802;7.132;2022-09-09T04:00:38;100297.59;;;17.86;100.00
9419;BME280;4748;50.802;7.132;2022-09-09T04:03:08;100290.28;;;17.86;100.00
9419;BME280;4748;50.802;7.132;2022-09-09T04:05:33;100292.19;;;17.86;100.00
9419;BME280;4748;50.802;7.132;2022-09-09T04:07:59;100289.47;;;17.86;100.00
9419;BME280;4748;50.802;7.132;2022-09-09T04:10:24;100295.97;;;17.89;100.00
9419;BME280;4748;50.802;7.132;2022-09-09T04:12:49;100288.09;;;17.83;100.00
9419;BME280;4748;50.802;7.132;2022-09-09T04:15:15;100283.50;;;17.88;100.00
9419;BME280;4748;50.802;7.132;2022-09-09T04:17:40;100286.22;;;17.84;100.00
9419;BME280;4748;50.802;7.132;2022-09-09T04:20:06;100290.53;;;17.85;100.00
9419;BME280;4748;50.802;7.132;2022-09-09T04:22:36;100282.13;;;17.91;100.00
9419;BME280;4748;50.802;7.132;2022-09-09T04:25:04;100286.19;;;17.93;100.00
9419;BME280;4748;50.802;7.132;2022-09-09T04:27:30;100292.69;;;17.92;100.00
9419;BME280;4748;50.802;7.132;2022-09-09T04:29:56;100294.31;;;17.93;100.00
9419;BME280;4748;50.802;7.132;2022-09-09T04:32:21;100300.53;;;17.94;100.00
9419;BME280;4748;50.802;7.132;2022-09-09T04:34:47;100302.97;;;17.95;100.00
9419;BME280;4748;50.802;7.132;2022-09-09T04:37:12;100301.38;;;17.85;100.00
9419;BME280;4748;50.802;7.132;2022-09-09T04:39:38;100309.50;;;17.89;100.00
9419;BME280;4748;50.802;7.132;2022-09-09T04:42:04;100303.53;;;17.92;100.00
9419;BME280;4748;50.802;7.132;2022-09-09T04:44:29;100305.16;;;17.93;100.00
9419;BME280;4748;50.802;7.132;2022-09-09T04:46:55;100314.38;;;17.97;100.00
9419;BME280;4748;50.802;7.132;2022-09-09T04:49:21;100322.50;;;17.97;100.00
9419;BME280;4748;50.802;7.132;2022-09-09T04:51:48;100315.44;;;17.91;100.00
9419;BME280;4748;50.802;7.132;2022-09-09T04:54:14;100317.34;;;17.91;100.00
9419;BME280;4748;50.802;7.132;2022-09-09T04:56:39;100316.56;;;17.90;100.00
9419;BME280;4748;50.802;7.132;2022-09-09T04:59:06;100314.38;;;17.92;100.00
9419;BME280;4748;50.802;7.132;2022-09-09T05:01:32;100326.00;;;17.93;100.00
9419;BME280;4748;50.802;7.132;2022-09-09T05:03:57;100321.69;;;17.92;100.00
9419;BME280;4748;50.802;7.132;2022-09-09T05:06:25;100321.97;;;17.90;100.00
9419;BME280;4748;50.802;7.132;2022-09-09T05:08:51;100326.56;;;17.90;100.00
9419;BME280;4748;50.802;7.132;2022-09-09T05:11:24;100321.69;;;17.92;100.00
9419;BME280;4748;50.802;7.132;2022-09-09T05:13:51;100324.69;;;17.90;100.00
9419;BME280;4748;50.802;7.132;2022-09-09T05:16:17;100319.78;;;17.92;100.00
9419;BME280;4748;50.802;7.132;2022-09-09T05:18:43;100325.47;;;17.96;100.00
9419;BME280;4748;50.802;7.132;2022-09-09T05:21:10;100324.66;;;17.95;100.00
9419;BME280;4748;50.802;7.132;2022-09-09T05:23:36;100319.78;;;17.97;100.00
9419;BME280;4748;50.802;7.132;2022-09-09T05:26:02;100314.09;;;17.94;100.00
9419;BME280;4748;50.802;7.132;2022-09-09T05:28:28;100313.84;;;17.90;100.00
9419;BME280;4748;50.802;7.132;2022-09-09T05:31:02;100319.22;;;17.95;100.00
9419;BME280;4748;50.802;7.132;2022-09-09T05:33:33;100321.94;;;17.95;100.00
9419;BME280;4748;50.802;7.132;2022-09-09T05:36:04;100319.50;;;17.99;100.00
9419;BME280;4748;50.802;7.132;2022-09-09T05:38:31;100324.66;;;18.00;100.00
9419;BME280;4748;50.802;7.132;2022-09-09T05:40:58;100328.97;;;18.01;100.00
9419;BME280;4748;50.802;7.132;2022-09-09T05:43:24;100317.31;;;18.01;100.00
9419;BME280;4748;50.802;7.132;2022-09-09T05:45:59;100318.97;;;18.02;100.00
9419;BME280;4748;50.802;7.132;2022-09-09T05:48:34;100317.31;;;18.01;100.00
9419;BME280;4748;50.802;7.132;2022-09-09T05:51:00;100320.28;;;18.04;100.00
9419;BME280;4748;50.802;7.132;2022-09-09T05:53:26;100317.31;;;18.06;100.00
9419;BME280;4748;50.802;7.132;2022-09-09T05:56:19;100319.47;;;18.04;100.00
9419;BME280;4748;50.802;7.132;2022-09-09T05:58:45;100329.47;;;18.08;100.00
9419;BME280;4748;50.802;7.132;2022-09-09T06:01:38;100319.19;;;18.10;100.00
9419;BME280;4748;50.802;7.132;2022-09-09T06:04:05;100320.28;;;18.14;100.00
9419;BME280;4748;50.802;7.132;2022-09-09T06:06:34;100323.78;;;18.20;100.00
9419;BME280;4748;50.802;7.132;2022-09-09T06:09:05;100319.72;;;18.22;100.00
9419;BME280;4748;50.802;7.132;2022-09-09T06:11:36;100322.94;;;18.24;100.00
9419;BME280;4748;50.802;7.132;2022-09-09T06:14:03;100324.81;;;18.34;100.00
9419;BME280;4748;50.802;7.132;2022-09-09T06:16:29;100330.22;;;18.34;100.00
9419;BME280;4748;50.802;7.132;2022-09-09T06:18:56;100326.69;;;18.43;100.00
9419;BME280;4748;50.802;7.132;2022-09-09T06:21:27;100331.50;;;18.56;100.00
9419;BME280;4748;50.802;7.132;2022-09-09T06:23:53;100334.16;;;18.61;100.00
9419;BME280;4748;50.802;7.132;2022-09-09T06:26:21;100328.38;;;18.77;100.00
9419;BME280;4748;50.802;7.132;2022-09-09T06:28:48;100337.53;;;18.91;100.00
9419;BME280;4748;50.802;7.132;2022-09-09T06:31:17;100314.38;;;19.03;100.00
9419;BME280;4748;50.802;7.132;2022-09-09T06:33:47;100325.16;;;19.13;100.00
9419;BME280;4748;50.802;7.132;2022-09-09T06:36:15;100325.41;;;19.17;100.00
9419;BME280;4748;50.802;7.132;2022-09-09T06:38:41;100332.72;;;19.21;100.00
9419;BME280;4748;50.802;7.132;2022-09-09T06:41:09;100333.78;;;19.20;100.00
9419;BME280;4748;50.802;7.132;2022-09-09T06:43:34;100330.72;;;19.32;100.00
9419;BME280;4748;50.802;7.132;2022-09-09T06:46:03;100334.19;;;19.37;100.00
9419;BME280;4748;50.802;7.132;2022-09-09T06:48:29;100332.38;;;19.56;100.00
9419;BME280;4748;50.802;7.132;2022-09-09T06:51:05;100320.78;;;19.79;100.00
9419;BME280;4748;50.802;7.132;2022-09-09T06:53:33;100327.69;;;19.95;100.00
9419;BME280;4748;50.802;7.132;2022-09-09T06:56:00;100324.31;;;20.02;100.00
9419;BME280;4748;50.802;7.132;2022-09-09T06:58:27;100319.75;;;19.98;100.00
9419;BME280;4748;50.802;7.132;2022-09-09T07:01:07;100323.25;;;19.75;100.00
9419;BME280;4748;50.802;7.132;2022-09-09T07:03:33;100312.66;;;19.74;100.00
9419;BME280;4748;50.802;7.132;2022-09-09T07:05:59;100320.13;;;19.87;100.00
9419;BME280;4748;50.802;7.132;2022-09-09T07:08:24;100319.88;;;19.88;100.00
9419;BME280;4748;50.802;7.132;2022-09-09T07:10:50;100323.53;;;20.02;100.00
9419;BME280;4748;50.802;7.132;2022-09-09T07:13:19;100315.28;;;19.89;100.00
9419;BME280;4748;50.802;7.132;2022-09-09T07:15:46;100325.66;;;20.05;100.00
9419;BME280;4748;50.802;7.132;2022-09-09T07:18:11;100322.94;;;20.28;100.00
9419;BME280;4748;50.802;7.132;2022-09-09T07:20:36;100316.72;;;20.46;100.00
9419;BME280;4748;50.802;7.132;2022-09-09T07:23:02;100324.44;;;20.81;100.00
9419;BME280;4748;50.802;7.132;2022-09-09T07:25:27;100332.22;;;21.05;100.00
9419;BME280;4748;50.802;7.132;2022-09-09T07:27:55;100321.13;;;21.02;100.00
9419;BME280;4748;50.802;7.132;2022-09-09T07:30:21;100323.66;;;21.30;100.00
9419;BME280;4748;50.802;7.132;2022-09-09T07:32:47;100320.09;;;21.48;100.00
9419;BME280;4748;50.802;7.132;2022-09-09T07:35:12;100317.91;;;21.63;100.00
9419;BME280;4748;50.802;7.132;2022-09-09T07:37:37;100333.13;;;21.83;100.00
9419;BME280;4748;50.802;7.132;2022-09-09T07:40:03;100336.91;;;21.68;100.00
9419;BME280;4748;50.802;7.132;2022-09-09T07:42:29;100334.69;;;21.70;100.00
9419;BME280;4748;50.802;7.132;2022-09-09T07:44:55;100344.94;;;21.60;100.00
9419;BME280;4748;50.802;7.132;2022-09-09T07:47:20;100348.03;;;21.40;100.00
9419;BME280;4748;50.802;7.132;2022-09-09T07:49:46;100367.00;;;21.45;100.00
9419;BME280;4748;50.802;7.132;2022-09-09T07:52:12;100357.94;;;21.31;100.00
9419;BME280;4748;50.802;7.132;2022-09-09T07:54:37;100363.66;;;21.16;100.00
9419;BME280;4748;50.802;7.132;2022-09-09T07:57:03;100363.50;;;20.90;100.00
9419;BME280;4748;50.802;7.132;2022-09-09T07:59:29;100367.13;;;20.85;100.00
9419;BME280;4748;50.802;7.132;2022-09-09T08:01:55;100368.66;;;20.68;100.00
9419;BME280;4748;50.802;7.132;2022-09-09T08:04:22;100368.00;;;20.57;100.00
9419;BME280;4748;50.802;7.132;2022-09-09T08:06:50;100365.06;;;20.54;100.00
9419;BME280;4748;50.802;7.132;2022-09-09T08:09:18;100364.38;;;20.62;100.00
9419;BME280;4748;50.802;7.132;2022-09-09T08:11:44;100371.09;;;20.51;100.00
9419;BME280;4748;50.802;7.132;2022-09-09T08:14:11;100373.84;;;20.46;100.00
9419;BME280;4748;50.802;7.132;2022-09-09T08:16:39;100369.44;;;20.50;100.00
9419;BME280;4748;50.802;7.132;2022-09-09T08:19:05;100372.22;;;20.45;100.00
9419;BME280;4748;50.802;7.132;2022-09-09T08:21:33;100369.22;;;20.47;100.00
9419;BME280;4748;50.802;7.132;2022-09-09T08:24:00;100372.56;;;20.62;100.00
9419;BME280;4748;50.802;7.132;2022-09-09T08:26:31;100370.06;;;20.65;100.00
9419;BME280;4748;50.802;7.132;2022-09-09T08:28:58;100368.00;;;20.81;100.00
9419;BME280;4748;50.802;7.132;2022-09-09T08:31:29;100369.91;;;20.99;100.00
9419;BME280;4748;50.802;7.132;2022-09-09T08:33:56;100370.50;;;20.96;100.00
9419;BME280;4748;50.802;7.132;2022-09-09T08:36:24;100372.47;;;20.90;100.00
9419;BME280;4748;50.802;7.132;2022-09-09T08:38:52;100365.25;;;20.99;100.00
9419;BME280;4748;50.802;7.132;2022-09-09T08:50:27;100359.75;;;21.04;100.00
9419;BME280;4748;50.802;7.132;2022-09-09T08:55:48;100365.47;;;21.39;100.00
9419;BME280;4748;50.802;7.132;2022-09-09T08:58:32;100358.41;;;21.70;100.00
9419;BME280;4748;50.802;7.132;2022-09-09T09:03:53;100367.91;;;21.72;100.00
9419;BME280;4748;50.802;7.132;2022-09-09T09:11:58;100364.28;;;21.77;100.00
9419;BME280;4748;50.802;7.132;2022-09-09T09:14:28;100361.59;;;21.90;100.00
9419;BME280;4748;50.802;7.132;2022-09-09T09:19:24;100367.88;;;22.04;100.00
9419;BME280;4748;50.802;7.132;2022-09-09T09:22:10;100369.81;;;22.17;99.92
9419;BME280;4748;50.802;7.132;2022-09-09T09:24:53;100365.84;;;22.09;96.98
9419;BME280;4748;50.802;7.132;2022-09-09T09:27:32;100367.66;;;22.01;95.91
9419;BME280;4748;50.802;7.132;2022-09-09T09:30:10;100383.16;;;22.18;100.00
9419;BME280;4748;50.802;7.132;2022-09-09T09:32:39;100377.72;;;21.87;95.15
9419;BME280;4748;50.802;7.132;2022-09-09T09:35:10;100384.22;;;21.91;94.04
9419;BME280;4748;50.802;7.132;2022-09-09T09:37:36;100377.97;;;21.90;100.00
9419;BME280;4748;50.802;7.132;2022-09-09T09:40:10;100375.66;;;21.65;92.34
9419;BME280;4748;50.802;7.132;2022-09-09T09:42:37;100378.09;;;21.67;97.29
9419;BME280;4748;50.802;7.132;2022-09-09T09:48:04;100369.03;;;21.71;98.65
9419;BME280;4748;50.802;7.132;2022-09-09T09:50:31;100370.25;;;21.79;98.87
9419;BME280;4748;50.802;7.132;2022-09-09T09:53:02;100371.81;;;22.11;94.27
9419;BME280;4748;50.802;7.132;2022-09-09T09:55:30;100375.22;;;21.90;95.55
9419;BME280;4748;50.802;7.132;2022-09-09T09:58:04;100371.78;;;21.85;89.20
9419;BME280;4748;50.802;7.132;2022-09-09T10:00:31;100377.25;;;21.98;96.66
9419;BME280;4748;50.802;7.132;2022-09-09T10:02:59;100374.59;;;22.25;93.04
9419;BME280;4748;50.802;7.132;2022-09-09T10:05:27;100369.91;;;22.79;91.38
9419;BME280;4748;50.802;7.132;2022-09-09T10:08:04;100366.63;;;22.90;88.65
9419;BME280;4748;50.802;7.132;2022-09-09T10:13:40;100369.22;;;22.73;77.80
9419;BME280;4748;50.802;7.132;2022-09-09T10:19:10;100358.91;;;23.84;85.27
9419;BME280;4748;50.802;7.132;2022-09-09T10:24:33;100369.78;;;23.32;89.58
9419;BME280;4748;50.802;7.132;2022-09-09T10:27:22;100369.66;;;22.89;74.68
9419;BME280;4748;50.802;7.132;2022-09-09T10:35:27;100366.88;;;22.67;84.95
9419;BME280;4748;50.802;7.132;2022-09-09T10:38:16;100372.16;;;22.50;90.74
9419;BME280;4748;50.802;7.132;2022-09-09T10:43:42;100349.81;;;22.61;86.25
9419;BME280;4748;50.802;7.132;2022-09-09T10:46:26;100356.84;;;22.76;88.45
9419;BME280;4748;50.802;7.132;2022-09-09T10:57:01;100358.00;;;23.10;83.08
9419;BME280;4748;50.802;7.132;2022-09-09T10:59:38;100347.41;;;23.52;83.38
9419;BME280;4748;50.802;7.132;2022-09-09T11:04:47;100343.19;;;23.68;79.98
9419;BME280;4748;50.802;7.132;2022-09-09T11:07:21;100344.75;;;23.91;79.80
9419;BME280;4748;50.802;7.132;2022-09-09T11:09:54;100343.06;;;23.73;79.46
9419;BME280;4748;50.802;7.132;2022-09-09T11:12:23;100344.25;;;23.80;85.40
9419;BME280;4748;50.802;7.132;2022-09-09T11:15:26;100346.03;;;23.85;71.46
9419;BME280;4748;50.802;7.132;2022-09-09T11:17:56;100344.06;;;23.77;80.05
9419;BME280;4748;50.802;7.132;2022-09-09T11:20:25;100340.81;;;23.75;83.66
9419;BME280;4748;50.802;7.132;2022-09-09T11:25:44;100339.22;;;23.74;73.97
9419;BME280;4748;50.802;7.132;2022-09-09T11:28:21;100329.25;;;23.78;80.04
9419;BME280;4748;50.802;7.132;2022-09-09T11:33:31;100318.78;;;23.71;77.81
9419;BME280;4748;50.802;7.132;2022-09-09T11:36:13;100330.63;;;23.45;80.78
9419;BME280;4748;50.802;7.132;2022-09-09T11:38:52;100325.41;;;23.35;77.94
9419;BME280;4748;50.802;7.132;2022-09-09T11:41:19;100324.06;;;23.24;81.41
9419;BME280;4748;50.802;7.132;2022-09-09T11:43:52;100328.84;;;23.41;81.41
9419;BME280;4748;50.802;7.132;2022-09-09T11:46:21;100326.91;;;23.19;79.08
9419;BME280;4748;50.802;7.132;2022-09-09T11:49:02;100335.72;;;23.16;73.01
9419;BME280;4748;50.802;7.132;2022-09-09T11:51:30;100331.81;;;23.31;80.90
9419;BME280;4748;50.802;7.132;2022-09-09T11:54:47;100324.69;;;23.43;71.82
9419;BME280;4748;50.802;7.132;2022-09-09T11:57:24;100327.03;;;23.36;75.34
9419;BME280;4748;50.802;7.132;2022-09-09T11:59:51;100323.00;;;23.34;79.03
9419;BME280;4748;50.802;7.132;2022-09-09T12:02:29;100321.41;;;23.33;76.32
9419;BME280;4748;50.802;7.132;2022-09-09T12:05:12;100319.75;;;23.54;77.59
9419;BME280;4748;50.802;7.132;2022-09-09T12:07:42;100316.34;;;23.70;76.48
9419;BME280;4748;50.802;7.132;2022-09-09T12:10:33;100327.78;;;23.72;71.23
9419;BME280;4748;50.802;7.132;2022-09-09T12:13:19;100323.81;;;23.34;67.05
9419;BME280;4748;50.802;7.132;2022-09-09T12:15:49;100328.63;;;23.59;76.81
9419;BME280;4748;50.802;7.132;2022-09-09T12:18:44;100325.91;;;23.59;66.61
9419;BME280;4748;50.802;7.132;2022-09-09T12:23:58;100326.91;;;23.41;71.45
9419;BME280;4748;50.802;7.132;2022-09-09T12:27:03;100316.66;;;23.47;78.32
9419;BME280;4748;50.802;7.132;2022-09-09T12:29:23;100322.81;;;23.74;77.76
9419;BME280;4748;50.802;7.132;2022-09-09T12:32:13;100327.94;;;23.67;67.32
9419;BME280;4748;50.802;7.132;2022-09-09T12:34:54;100321.50;;;23.50;70.21
9419;BME280;4748;50.802;7.132;2022-09-09T12:37:43;100318.84;;;23.36;70.18
9419;BME280;4748;50.802;7.132;2022-09-09T12:40:26;100312.56;;;23.14;69.15
9419;BME280;4748;50.802;7.132;2022-09-09T12:42:52;100315.47;;;22.96;77.97
9419;BME280;4748;50.802;7.132;2022-09-09T12:45:21;100307.78;;;22.98;78.35
9419;BME280;4748;50.802;7.132;2022-09-09T12:47:55;100303.38;;;23.10;74.76
9419;BME280;4748;50.802;7.132;2022-09-09T12:50:28;100304.81;;;23.08;77.88
9419;BME280;4748;50.802;7.132;2022-09-09T12:52:56;100307.44;;;23.34;79.17
9419;BME280;4748;50.802;7.132;2022-09-09T12:55:36;100303.13;;;23.42;71.91
9419;BME280;4748;50.802;7.132;2022-09-09T12:58:03;100301.88;;;23.48;75.50
9419;BME280;4748;50.802;7.132;2022-09-09T13:00:31;100299.09;;;23.39;77.14
9419;BME280;4748;50.802;7.132;2022-09-09T13:02:58;100297.53;;;23.25;76.37
9419;BME280;4748;50.802;7.132;2022-09-09T13:05:25;100298.97;;;23.22;77.03
9419;BME280;4748;50.802;7.132;2022-09-09T13:07:50;100295.53;;;23.17;77.25
9419;BME280;4748;50.802;7.132;2022-09-09T13:10:26;100288.72;;;22.93;72.38
9419;BME280;4748;50.802;7.132;2022-09-09T13:12:54;100287.63;;;22.72;79.05
9419;BME280;4748;50.802;7.132;2022-09-09T13:15:22;100291.16;;;22.59;78.35
9419;BME280;4748;50.802;7.132;2022-09-09T13:17:55;100296.75;;;22.41;77.71
9419;BME280;4748;50.802;7.132;2022-09-09T13:20:22;100292.50;;;22.48;80.10
9419;BME280;4748;50.802;7.132;2022-09-09T13:22:50;100293.88;;;22.59;79.62
9419;BME280;4748;50.802;7.132;2022-09-09T13:25:21;100291.69;;;22.61;77.27
9419;BME280;4748;50.802;7.132;2022-09-09T13:30:26;100289.16;;;23.00;79.78
9419;BME280;4748;50.802;7.132;2022-09-09T13:35:49;100293.69;;;23.04;77.68
9419;BME280;4748;50.802;7.132;2022-09-09T13:38:16;100289.34;;;23.03;80.24
9419;BME280;4748;50.802;7.132;2022-09-09T13:43:23;100283.47;;;23.40;76.75
9419;BME280;4748;50.802;7.132;2022-09-09T13:45:55;100287.88;;;23.49;78.02
9419;BME280;4748;50.802;7.132;2022-09-09T13:48:22;100285.06;;;23.62;77.54
9419;BME280;4748;50.802;7.132;2022-09-09T13:51:21;100289.50;;;23.50;76.01
9419;BME280;4748;50.802;7.132;2022-09-09T13:53:51;100282.78;;;23.56;77.21
9419;BME280;4748;50.802;7.132;2022-09-09T13:56:17;100285.31;;;23.44;78.97
9419;BME280;4748;50.802;7.132;2022-09-09T13:58:43;100294.66;;;23.30;80.63
9419;BME280;4748;50.802;7.132;2022-09-09T14:01:08;100288.66;;;23.19;79.09
9419;BME280;4748;50.802;7.132;2022-09-09T14:03:36;100277.97;;;23.09;80.98
9419;BME280;4748;50.802;7.132;2022-09-09T14:06:02;100280.28;;;23.16;81.92
9419;BME280;4748;50.802;7.132;2022-09-09T14:08:27;100281.47;;;23.23;82.62
9419;BME280;4748;50.802;7.132;2022-09-09T14:11:02;100274.63;;;23.34;82.91
9419;BME280;4748;50.802;7.132;2022-09-09T14:13:27;100275.97;;;23.45;83.17
9419;BME280;4748;50.802;7.132;2022-09-09T14:15:52;100273.28;;;23.54;83.00
9419;BME280;4748;50.802;7.132;2022-09-09T14:18:18;100274.38;;;23.53;83.94
9419;BME280;4748;50.802;7.132;2022-09-09T14:20:44;100281.03;;;23.60;83.03
9419;BME280;4748;50.802;7.132;2022-09-09T14:23:11;100277.66;;;23.33;84.79
9419;BME280;4748;50.802;7.132;2022-09-09T14:25:39;100274.25;;;23.58;84.02
9419;BME280;4748;50.802;7.132;2022-09-09T14:28:05;100275.75;;;23.33;85.20
9419;BME280;4748;50.802;7.132;2022-09-09T14:30:30;100277.84;;;23.36;87.51
9419;BME280;4748;50.802;7.132;2022-09-09T14:32:55;100273.09;;;23.50;86.63
9419;BME280;4748;50.802;7.132;2022-09-09T14:35:21;100278.22;;;23.43;85.90
9419;BME280;4748;50.802;7.132;2022-09-09T14:37:47;100275.09;;;23.36;85.09
9419;BME280;4748;50.802;7.132;2022-09-09T14:40:13;100262.84;;;23.56;84.47
9419;BME280;4748;50.802;7.132;2022-09-09T14:42:39;100270.91;;;23.30;82.29
9419;BME280;4748;50.802;7.132;2022-09-09T14:45:06;100267.09;;;23.18;82.62
9419;BME280;4748;50.802;7.132;2022-09-09T14:47:31;100276.38;;;23.30;83.22
9419;BME280;4748;50.802;7.132;2022-09-09T14:49:57;100272.81;;;23.30;83.60
9419;BME280;4748;50.802;7.132;2022-09-09T14:52:22;100264.38;;;23.48;83.03
9419;BME280;4748;50.802;7.132;2022-09-09T14:54:47;100264.94;;;23.59;79.17
9419;BME280;4748;50.802;7.132;2022-09-09T14:57:13;100263.44;;;23.74;81.38
9419;BME280;4748;50.802;7.132;2022-09-09T14:59:38;100257.94;;;23.66;83.25
9419;BME280;4748;50.802;7.132;2022-09-09T15:02:04;100264.00;;;23.63;82.92
9419;BME280;4748;50.802;7.132;2022-09-09T15:04:30;100268.66;;;23.32;82.89
9419;BME280;4748;50.802;7.132;2022-09-09T15:06:55;100260.09;;;23.04;85.22
9419;BME280;4748;50.802;7.132;2022-09-09T15:09:21;100254.34;;;22.92;85.61
9419;BME280;4748;50.802;7.132;2022-09-09T15:11:48;100254.34;;;22.92;86.40
9419;BME280;4748;50.802;7.132;2022-09-09T15:14:14;100268.44;;;22.85;86.24
9419;BME280;4748;50.802;7.132;2022-09-09T15:16:39;100268.63;;;22.89;86.94
9419;BME280;4748;50.802;7.132;2022-09-09T15:19:05;100273.47;;;22.92;86.10
9419;BME280;4748;50.802;7.132;2022-09-09T15:21:33;100265.81;;;22.80;87.64
9419;BME280;4748;50.802;7.132;2022-09-09T15:23:59;100267.06;;;22.74;87.08
9419;BME280;4748;50.802;7.132;2022-09-09T15:26:25;100271.63;;;22.65;88.40
9419;BME280;4748;50.802;7.132;2022-09-09T15:28:51;100286.03;;;22.31;93.61
9419;BME280;4748;50.802;7.132;2022-09-09T15:31:22;100277.56;;;21.79;100.00
9419;BME280;4748;50.802;7.132;2022-09-09T15:33:54;100278.97;;;21.63;100.00
9419;BME280;4748;50.802;7.132;2022-09-09T15:36:35;100305.88;;;21.33;100.00
9419;BME280;4748;50.802;7.132;2022-09-09T15:39:02;100314.06;;;20.83;100.00
9419;BME280;4748;50.802;7.132;2022-09-09T15:41:29;100327.84;;;20.26;100.00
9419;BME280;4748;50.802;7.132;2022-09-09T15:43:56;100321.88;;;19.78;100.00
9419;BME280;4748;50.802;7.132;2022-09-09T15:48:57;100307.31;;;19.36;100.00
9419;BME280;4748;50.802;7.132;2022-09-09T15:51:24;100318.56;;;19.24;100.00
9419;BME280;4748;50.802;7.132;2022-09-09T15:53:54;100321.78;;;19.26;100.00
9419;BME280;4748;50.802;7.132;2022-09-09T15:56:20;100330.06;;;19.11;100.00
9419;BME280;4748;50.802;7.132;2022-09-09T15:58:46;100332.56;;;19.03;100.00
9419;BME280;4748;50.802;7.132;2022-09-09T16:01:11;100340.13;;;19.11;100.00
9419;BME280;4748;50.802;7.132;2022-09-09T16:03:41;100345.56;;;19.06;100.00
9419;BME280;4748;50.802;7.132;2022-09-09T16:06:15;100352.38;;;18.98;100.00
9419;BME280;4748;50.802;7.132;2022-09-09T16:08:43;100355.63;;;19.00;100.00
9419;BME280;4748;50.802;7.132;2022-09-09T16:11:14;100352.69;;;18.97;100.00
9419;BME280;4748;50.802;7.132;2022-09-09T16:13:42;100350.75;;;18.97;100.00
9419;BME280;4748;50.802;7.132;2022-09-09T16:16:10;100352.09;;;19.05;100.00
9419;BME280;4748;50.802;7.132;2022-09-09T16:18:38;100343.16;;;18.99;100.00
9419;BME280;4748;50.802;7.132;2022-09-09T16:21:04;100339.59;;;19.09;100.00
9419;BME280;4748;50.802;7.132;2022-09-09T16:23:31;100337.66;;;19.14;100.00
9419;BME280;4748;50.802;7.132;2022-09-09T16:25:57;100332.28;;;19.09;100.00
9419;BME280;4748;50.802;7.132;2022-09-09T16:28:23;100340.41;;;19.09;100.00
9419;BME280;4748;50.802;7.132;2022-09-09T16:30:48;100340.63;;;19.18;100.00
9419;BME280;4748;50.802;7.132;2022-09-09T16:33:15;100338.41;;;19.20;100.00
9419;BME280;4748;50.802;7.132;2022-09-09T16:35:41;100325.94;;;19.19;100.00
9419;BME280;4748;50.802;7.132;2022-09-09T16:38:06;100318.06;;;19.17;100.00
9419;BME280;4748;50.802;7.132;2022-09-09T16:40:38;100332.47;;;19.18;100.00
9419;BME280;4748;50.802;7.132;2022-09-09T16:43:04;100327.31;;;19.16;100.00
9419;BME280;4748;50.802;7.132;2022-09-09T16:45:31;100331.34;;;19.24;100.00
9419;BME280;4748;50.802;7.132;2022-09-09T16:47:58;100335.28;;;19.08;100.00
9419;BME280;4748;50.802;7.132;2022-09-09T16:50:23;100326.28;;;19.12;100.00
9419;BME280;4748;50.802;7.132;2022-09-09T16:52:48;100343.69;;;19.01;100.00
9419;BME280;4748;50.802;7.132;2022-09-09T16:55:14;100351.72;;;19.21;100.00
9419;BME280;4748;50.802;7.132;2022-09-09T16:57:39;100352.84;;;19.15;100.00
9419;BME280;4748;50.802;7.132;2022-09-09T17:00:07;100360.06;;;19.30;100.00
9419;BME280;4748;50.802;7.132;2022-09-09T17:02:33;100354.94;;;19.23;100.00
9419;BME280;4748;50.802;7.132;2022-09-09T17:04:58;100345.47;;;19.21;100.00
9419;BME280;4748;50.802;7.132;2022-09-09T17:07:24;100351.94;;;19.25;100.00
9419;BME280;4748;50.802;7.132;2022-09-09T17:09:50;100360.28;;;19.38;100.00
9419;BME280;4748;50.802;7.132;2022-09-09T17:12:15;100361.84;;;19.44;100.00
9419;BME280;4748;50.802;7.132;2022-09-09T17:14:41;100373.50;;;19.44;100.00
9419;BME280;4748;50.802;7.132;2022-09-09T17:17:07;100372.47;;;19.41;100.00
9419;BME280;4748;50.802;7.132;2022-09-09T17:19:32;100363.09;;;19.23;100.00
9419;BME280;4748;50.802;7.132;2022-09-09T17:21:58;100362.50;;;19.31;100.00
9419;BME280;4748;50.802;7.132;2022-09-09T17:24:24;100365.78;;;19.28;100.00
9419;BME280;4748;50.802;7.132;2022-09-09T17:26:50;100374.91;;;19.42;100.00
9419;BME280;4748;50.802;7.132;2022-09-09T17:29:15;100379.63;;;19.27;100.00
9419;BME280;4748;50.802;7.132;2022-09-09T17:31:42;100379.94;;;19.25;100.00
9419;BME280;4748;50.802;7.132;2022-09-09T17:34:08;100373.44;;;19.21;100.00
9419;BME280;4748;50.802;7.132;2022-09-09T17:36:34;100384.84;;;19.18;100.00
9419;BME280;4748;50.802;7.132;2022-09-09T17:39:00;100383.22;;;19.17;100.00
9419;BME280;4748;50.802;7.132;2022-09-09T17:41:37;100385.22;;;19.07;100.00
9419;BME280;4748;50.802;7.132;2022-09-09T17:44:03;100392.81;;;19.05;100.00
9419;BME280;4748;50.802;7.132;2022-09-09T17:46:32;100385.25;;;18.92;100.00
9419;BME280;4748;50.802;7.132;2022-09-09T17:49:01;100393.94;;;18.94;100.00
9419;BME280;4748;50.802;7.132;2022-09-09T17:51:28;100384.50;;;18.87;100.00
9419;BME280;4748;50.802;7.132;2022-09-09T17:53:58;100397.56;;;18.80;100.00
9419;BME280;4748;50.802;7.132;2022-09-09T17:56:25;100402.47;;;18.73;100.00
9419;BME280;4748;50.802;7.132;2022-09-09T17:58:52;100399.78;;;18.68;100.00